sensor_id;sensor_type;location;lat;lon;timestamp;P1;durP1;ratioP1;P2;durP2;ratioP2
8958;SDS011;4514;49.476;8.484;2023-02-01T00:02:13;3.27;;;2.97;;
8958;SDS011;4514;49.476;8.484;2023-02-01T00:04:38;3.57;;;3.27;;
8958;SDS011;4514;49.476;8.484;2023-02-01T00:07:03;4.40;;;3.13;;
8958;SDS011;4514;49.476;8.484;2023-02-01T00:09:29;3.90;;;3.27;;
8958;SDS011;4514;49.476;8.484;2023-02-01T00:11:54;5.87;;;3.30;;
8958;SDS011;4514;49.476;8.484;2023-02-01T00:14:24;6.33;;;3.60;;
8958;SDS011;4514;49.476;8.484;2023-02-01T00:16:49;3.80;;;3.27;;
8958;SDS011;4514;49.476;8.484;2023-02-01T00:19:15;3.93;;;3.13;;
8958;SDS011;4514;49.476;8.484;2023-02-01T00:21:52;5.77;;;3.60;;
8958;SDS011;4514;49.476;8.484;2023-02-01T00:24:18;4.37;;;3.57;;
8958;SDS011;4514;49.476;8.484;2023-02-01T00:26:44;4.40;;;3.30;;
8958;SDS011;4514;49.476;8.484;2023-02-01T00:29:11;3.57;;;3.27;;
8958;SDS011;4514;49.476;8.484;2023-02-01T00:31:38;3.97;;;3.10;;
8958;SDS011;4514;49.476;8.484;2023-02-01T00:34:03;4.40;;;3.20;;
8958;SDS011;4514;49.476;8.484;2023-02-01T00:36:29;3.58;;;3.22;;
8958;SDS011;4514;49.476;8.484;2023-02-01T00:38:55;3.97;;;3.37;;
8958;SDS011;4514;49.476;8.484;2023-02-01T00:41:21;4.20;;;3.40;;
8958;SDS011;4514;49.476;8.484;2023-02-01T00:43:47;3.83;;;3.40;;
8958;SDS011;4514;49.476;8.484;2023-02-01T00:46:14;3.83;;;3.10;;
8958;SDS011;4514;49.476;8.484;2023-02-01T00:48:40;3.60;;;3.30;;
8958;SDS011;4514;49.476;8.484;2023-02-01T00:51:14;6.00;;;3.37;;
8958;SDS011;4514;49.476;8.484;2023-02-01T00:53:42;4.30;;;3.60;;
8958;SDS011;4514;49.476;8.484;2023-02-01T00:56:07;4.93;;;3.90;;
8958;SDS011;4514;49.476;8.484;2023-02-01T00:58:33;5.23;;;3.33;;
8958;SDS011;4514;49.476;8.484;2023-02-01T01:03:34;4.72;;;4.18;;
8958;SDS011;4514;49.476;8.484;2023-02-01T01:06:03;4.57;;;3.90;;
8958;SDS011;4514;49.476;8.484;2023-02-01T01:08:33;4.47;;;3.40;;
8958;SDS011;4514;49.476;8.484;2023-02-01T01:11:09;4.27;;;3.70;;
8958;SDS011;4514;49.476;8.484;2023-02-01T01:13:39;3.73;;;3.33;;
8958;SDS011;4514;49.476;8.484;2023-02-01T01:16:05;5.50;;;3.78;;
8958;SDS011;4514;49.476;8.484;2023-02-01T01:18:32;4.30;;;3.47;;
8958;SDS011;4514;49.476;8.484;2023-02-01T01:21:00;4.20;;;3.50;;
8958;SDS011;4514;49.476;8.484;2023-02-01T01:23:27;3.70;;;3.30;;
8958;SDS011;4514;49.476;8.484;2023-02-01T01:25:53;3.70;;;3.30;;
8958;SDS011;4514;49.476;8.484;2023-02-01T01:28:18;4.37;;;3.60;;
8958;SDS011;4514;49.476;8.484;2023-02-01T01:30:47;4.10;;;3.60;;
8958;SDS011;4514;49.476;8.484;2023-02-01T01:33:13;4.67;;;3.60;;
8958;SDS011;4514;49.476;8.484;2023-02-01T01:35:38;3.87;;;3.47;;
8958;SDS011;4514;49.476;8.484;2023-02-01T01:38:06;4.67;;;4.00;;
8958;SDS011;4514;49.476;8.484;2023-02-01T01:40:34;4.93;;;3.80;;
8958;SDS011;4514;49.476;8.484;2023-02-01T01:43:00;4.67;;;3.73;;
8958;SDS011;4514;49.476;8.484;2023-02-01T01:47:56;4.73;;;3.80;;
8958;SDS011;4514;49.476;8.484;2023-02-01T01:50:37;3.97;;;3.67;;
8958;SDS011;4514;49.476;8.484;2023-02-01T01:53:16;5.50;;;4.40;;
8958;SDS011;4514;49.476;8.484;2023-02-01T01:55:44;4.80;;;4.00;;
8958;SDS011;4514;49.476;8.484;2023-02-01T01:58:13;5.33;;;3.87;;
8958;SDS011;4514;49.476;8.484;2023-02-01T02:00:41;4.13;;;3.70;;
8958;SDS011;4514;49.476;8.484;2023-02-01T02:03:11;4.80;;;3.57;;
8958;SDS011;4514;49.476;8.484;2023-02-01T02:05:42;5.47;;;4.07;;
8958;SDS011;4514;49.476;8.484;2023-02-01T02:08:10;4.40;;;4.00;;
8958;SDS011;4514;49.476;8.484;2023-02-01T02:10:37;4.47;;;3.67;;
8958;SDS011;4514;49.476;8.484;2023-02-01T02:13:21;5.97;;;3.80;;
8958;SDS011;4514;49.476;8.484;2023-02-01T02:18:57;5.20;;;3.77;;
8958;SDS011;4514;49.476;8.484;2023-02-01T02:25:02;3.93;;;3.40;;
8958;SDS011;4514;49.476;8.484;2023-02-01T02:27:57;4.10;;;3.70;;
8958;SDS011;4514;49.476;8.484;2023-02-01T02:38:31;6.37;;;4.07;;
8958;SDS011;4514;49.476;8.484;2023-02-01T02:44:32;4.47;;;4.00;;
8958;SDS011;4514;49.476;8.484;2023-02-01T02:47:56;4.50;;;3.83;;
8958;SDS011;4514;49.476;8.484;2023-02-01T02:53:22;6.13;;;4.83;;
8958;SDS011;4514;49.476;8.484;2023-02-01T02:56:08;6.57;;;4.53;;
8958;SDS011;4514;49.476;8.484;2023-02-01T02:58:53;4.73;;;4.23;;
8958;SDS011;4514;49.476;8.484;2023-02-01T03:01:38;4.40;;;4.00;;
8958;SDS011;4514;49.476;8.484;2023-02-01T03:04:27;4.33;;;3.43;;
8958;SDS011;4514;49.476;8.484;2023-02-01T03:06:53;5.40;;;4.20;;
8958;SDS011;4514;49.476;8.484;2023-02-01T03:11:51;4.47;;;3.70;;
8958;SDS011;4514;49.476;8.484;2023-02-01T03:14:37;4.17;;;3.77;;
8958;SDS011;4514;49.476;8.484;2023-02-01T03:17:11;3.83;;;3.33;;
8958;SDS011;4514;49.476;8.484;2023-02-01T03:19:43;6.50;;;3.93;;
8958;SDS011;4514;49.476;8.484;2023-02-01T03:22:24;4.33;;;3.70;;
8958;SDS011;4514;49.476;8.484;2023-02-01T03:24:54;6.47;;;3.80;;
8958;SDS011;4514;49.476;8.484;2023-02-01T03:27:30;4.27;;;3.60;;
8958;SDS011;4514;49.476;8.484;2023-02-01T03:32:36;4.37;;;3.80;;
8958;SDS011;4514;49.476;8.484;2023-02-01T03:35:23;6.43;;;3.67;;
8958;SDS011;4514;49.476;8.484;2023-02-01T03:37:54;5.20;;;3.40;;
8958;SDS011;4514;49.476;8.484;2023-02-01T03:40:23;5.00;;;3.40;;
8958;SDS011;4514;49.476;8.484;2023-02-01T03:42:50;3.80;;;3.40;;
8958;SDS011;4514;49.476;8.484;2023-02-01T03:45:28;5.00;;;3.40;;
8958;SDS011;4514;49.476;8.484;2023-02-01T03:47:58;5.80;;;3.40;;
8958;SDS011;4514;49.476;8.484;2023-02-01T03:50:25;3.80;;;3.20;;
8958;SDS011;4514;49.476;8.484;2023-02-01T03:52:53;3.93;;;3.60;;
8958;SDS011;4514;49.476;8.484;2023-02-01T03:55:22;8.63;;;3.53;;
8958;SDS011;4514;49.476;8.484;2023-02-01T03:57:53;3.87;;;3.57;;
8958;SDS011;4514;49.476;8.484;2023-02-01T04:00:23;4.70;;;3.70;;
8958;SDS011;4514;49.476;8.484;2023-02-01T04:02:50;4.80;;;3.70;;
8958;SDS011;4514;49.476;8.484;2023-02-01T04:05:16;4.97;;;3.87;;
8958;SDS011;4514;49.476;8.484;2023-02-01T04:07:42;7.87;;;4.00;;
8958;SDS011;4514;49.476;8.484;2023-02-01T04:10:13;5.10;;;4.00;;
8958;SDS011;4514;49.476;8.484;2023-02-01T04:12:41;6.00;;;3.90;;
8958;SDS011;4514;49.476;8.484;2023-02-01T04:15:11;6.00;;;3.90;;
8958;SDS011;4514;49.476;8.484;2023-02-01T04:17:37;5.47;;;3.97;;
8958;SDS011;4514;49.476;8.484;2023-02-01T04:20:02;5.50;;;4.33;;
8958;SDS011;4514;49.476;8.484;2023-02-01T04:22:29;4.87;;;3.97;;
8958;SDS011;4514;49.476;8.484;2023-02-01T04:24:55;6.13;;;3.70;;
8958;SDS011;4514;49.476;8.484;2023-02-01T04:27:20;4.70;;;3.53;;
8958;SDS011;4514;49.476;8.484;2023-02-01T04:29:48;5.50;;;3.80;;
8958;SDS011;4514;49.476;8.484;2023-02-01T04:32:16;7.77;;;3.73;;
8958;SDS011;4514;49.476;8.484;2023-02-01T04:34:42;5.43;;;4.00;;
8958;SDS011;4514;49.476;8.484;2023-02-01T04:37:10;6.20;;;4.60;;
8958;SDS011;4514;49.476;8.484;2023-02-01T04:39:36;6.07;;;3.43;;
8958;SDS011;4514;49.476;8.484;2023-02-01T04:42:02;7.03;;;4.13;;
8958;SDS011;4514;49.476;8.484;2023-02-01T04:44:30;6.90;;;4.10;;
8958;SDS011;4514;49.476;8.484;2023-02-01T04:46:55;6.27;;;4.13;;
8958;SDS011;4514;49.476;8.484;2023-02-01T04:49:20;4.70;;;3.80;;
8958;SDS011;4514;49.476;8.484;2023-02-01T04:51:46;7.63;;;3.90;;
8958;SDS011;4514;49.476;8.484;2023-02-01T04:54:14;4.97;;;4.23;;
8958;SDS011;4514;49.476;8.484;2023-02-01T04:56:40;4.63;;;3.93;;
8958;SDS011;4514;49.476;8.484;2023-02-01T04:59:12;6.03;;;4.27;;
8958;SDS011;4514;49.476;8.484;2023-02-01T05:01:40;5.50;;;3.63;;
8958;SDS011;4514;49.476;8.484;2023-02-01T05:04:05;6.00;;;4.07;;
8958;SDS011;4514;49.476;8.484;2023-02-01T05:06:33;6.00;;;3.30;;
8958;SDS011;4514;49.476;8.484;2023-02-01T05:08:58;4.17;;;3.30;;
8958;SDS011;4514;49.476;8.484;2023-02-01T05:11:24;5.17;;;3.60;;
8958;SDS011;4514;49.476;8.484;2023-02-01T05:14:08;6.47;;;3.50;;
8958;SDS011;4514;49.476;8.484;2023-02-01T05:16:33;5.93;;;3.47;;
8958;SDS011;4514;49.476;8.484;2023-02-01T05:18:59;4.60;;;3.37;;
8958;SDS011;4514;49.476;8.484;2023-02-01T05:21:25;4.87;;;3.80;;
8958;SDS011;4514;49.476;8.484;2023-02-01T05:23:50;4.30;;;3.50;;
8958;SDS011;4514;49.476;8.484;2023-02-01T05:26:38;6.32;;;4.30;;
8958;SDS011;4514;49.476;8.484;2023-02-01T05:29:07;6.77;;;4.47;;
8958;SDS011;4514;49.476;8.484;2023-02-01T05:31:34;5.67;;;3.90;;
8958;SDS011;4514;49.476;8.484;2023-02-01T05:33:59;6.43;;;4.00;;
8958;SDS011;4514;49.476;8.484;2023-02-01T05:36:24;5.93;;;4.10;;
8958;SDS011;4514;49.476;8.484;2023-02-01T05:38:50;7.50;;;4.23;;
8958;SDS011;4514;49.476;8.484;2023-02-01T05:41:15;7.50;;;3.90;;
8958;SDS011;4514;49.476;8.484;2023-02-01T05:43:41;4.23;;;3.63;;
8958;SDS011;4514;49.476;8.484;2023-02-01T05:46:06;6.63;;;4.17;;
8958;SDS011;4514;49.476;8.484;2023-02-01T05:48:32;6.00;;;4.23;;
8958;SDS011;4514;49.476;8.484;2023-02-01T05:50:57;6.23;;;4.17;;
8958;SDS011;4514;49.476;8.484;2023-02-01T05:53:23;7.33;;;4.10;;
8958;SDS011;4514;49.476;8.484;2023-02-01T05:55:48;6.80;;;4.60;;
8958;SDS011;4514;49.476;8.484;2023-02-01T05:58:13;4.97;;;3.67;;
8958;SDS011;4514;49.476;8.484;2023-02-01T06:00:40;7.43;;;4.33;;
8958;SDS011;4514;49.476;8.484;2023-02-01T06:03:08;7.17;;;3.90;;
8958;SDS011;4514;49.476;8.484;2023-02-01T06:05:35;5.07;;;3.60;;
8958;SDS011;4514;49.476;8.484;2023-02-01T06:08:02;6.30;;;3.90;;
8958;SDS011;4514;49.476;8.484;2023-02-01T06:10:29;7.63;;;4.07;;
8958;SDS011;4514;49.476;8.484;2023-02-01T06:12:54;4.57;;;3.50;;
8958;SDS011;4514;49.476;8.484;2023-02-01T06:15:20;5.83;;;3.97;;
8958;SDS011;4514;49.476;8.484;2023-02-01T06:17:46;5.60;;;3.53;;
8958;SDS011;4514;49.476;8.484;2023-02-01T06:20:17;6.63;;;3.60;;
8958;SDS011;4514;49.476;8.484;2023-02-01T06:22:42;6.47;;;3.23;;
8958;SDS011;4514;49.476;8.484;2023-02-01T06:25:08;6.47;;;3.50;;
8958;SDS011;4514;49.476;8.484;2023-02-01T06:27:35;4.37;;;3.10;;
8958;SDS011;4514;49.476;8.484;2023-02-01T06:30:05;3.43;;;2.80;;
8958;SDS011;4514;49.476;8.484;2023-02-01T06:32:33;4.50;;;3.30;;
8958;SDS011;4514;49.476;8.484;2023-02-01T06:35:01;5.60;;;3.40;;
8958;SDS011;4514;49.476;8.484;2023-02-01T06:37:26;6.73;;;3.43;;
8958;SDS011;4514;49.476;8.484;2023-02-01T06:39:54;5.32;;;3.50;;
8958;SDS011;4514;49.476;8.484;2023-02-01T06:42:20;7.07;;;3.70;;
8958;SDS011;4514;49.476;8.484;2023-02-01T06:44:45;5.47;;;3.57;;
8958;SDS011;4514;49.476;8.484;2023-02-01T06:47:10;7.83;;;4.23;;
8958;SDS011;4514;49.476;8.484;2023-02-01T06:49:36;7.90;;;4.00;;
8958;SDS011;4514;49.476;8.484;2023-02-01T06:52:03;6.57;;;4.33;;
8958;SDS011;4514;49.476;8.484;2023-02-01T06:54:28;8.00;;;4.20;;
8958;SDS011;4514;49.476;8.484;2023-02-01T06:56:57;6.27;;;4.27;;
8958;SDS011;4514;49.476;8.484;2023-02-01T06:59:22;8.13;;;4.60;;
8958;SDS011;4514;49.476;8.484;2023-02-01T07:01:57;8.53;;;4.77;;
8958;SDS011;4514;49.476;8.484;2023-02-01T07:04:25;7.50;;;4.17;;
8958;SDS011;4514;49.476;8.484;2023-02-01T07:06:50;5.97;;;4.17;;
8958;SDS011;4514;49.476;8.484;2023-02-01T07:09:16;8.20;;;4.27;;
8958;SDS011;4514;49.476;8.484;2023-02-01T07:11:43;6.83;;;4.17;;
8958;SDS011;4514;49.476;8.484;2023-02-01T07:14:12;7.50;;;4.00;;
8958;SDS011;4514;49.476;8.484;2023-02-01T07:16:37;8.20;;;4.80;;
8958;SDS011;4514;49.476;8.484;2023-02-01T07:19:03;8.53;;;4.03;;
8958;SDS011;4514;49.476;8.484;2023-02-01T07:21:28;10.55;;;4.63;;
8958;SDS011;4514;49.476;8.484;2023-02-01T07:23:54;9.17;;;4.73;;
8958;SDS011;4514;49.476;8.484;2023-02-01T07:26:22;10.03;;;4.40;;
8958;SDS011;4514;49.476;8.484;2023-02-01T07:28:50;9.33;;;3.63;;
8958;SDS011;4514;49.476;8.484;2023-02-01T07:31:16;10.67;;;4.00;;
8958;SDS011;4514;49.476;8.484;2023-02-01T07:33:46;10.13;;;4.43;;
8958;SDS011;4514;49.476;8.484;2023-02-01T07:36:15;8.77;;;4.17;;
8958;SDS011;4514;49.476;8.484;2023-02-01T07:38:44;6.17;;;3.67;;
8958;SDS011;4514;49.476;8.484;2023-02-01T07:41:13;9.27;;;3.70;;
8958;SDS011;4514;49.476;8.484;2023-02-01T07:43:38;5.07;;;3.27;;
8958;SDS011;4514;49.476;8.484;2023-02-01T07:46:04;9.47;;;5.43;;
8958;SDS011;4514;49.476;8.484;2023-02-01T07:48:31;10.20;;;4.27;;
8958;SDS011;4514;49.476;8.484;2023-02-01T07:50:58;8.20;;;4.80;;
8958;SDS011;4514;49.476;8.484;2023-02-01T07:53:28;7.37;;;3.13;;
8958;SDS011;4514;49.476;8.484;2023-02-01T07:55:53;8.97;;;4.10;;
8958;SDS011;4514;49.476;8.484;2023-02-01T07:58:21;9.33;;;3.50;;
8958;SDS011;4514;49.476;8.484;2023-02-01T08:00:47;8.77;;;3.50;;
8958;SDS011;4514;49.476;8.484;2023-02-01T08:03:30;7.33;;;2.97;;
8958;SDS011;4514;49.476;8.484;2023-02-01T08:06:01;4.60;;;2.67;;
8958;SDS011;4514;49.476;8.484;2023-02-01T08:08:29;6.68;;;3.20;;
8958;SDS011;4514;49.476;8.484;2023-02-01T08:11:00;6.00;;;2.90;;
8958;SDS011;4514;49.476;8.484;2023-02-01T08:13:26;6.60;;;3.00;;
8958;SDS011;4514;49.476;8.484;2023-02-01T08:15:52;9.13;;;3.03;;
8958;SDS011;4514;49.476;8.484;2023-02-01T08:18:17;6.93;;;3.20;;
8958;SDS011;4514;49.476;8.484;2023-02-01T08:20:43;7.90;;;3.20;;
8958;SDS011;4514;49.476;8.484;2023-02-01T08:23:10;4.87;;;2.77;;
8958;SDS011;4514;49.476;8.484;2023-02-01T08:25:39;10.37;;;3.03;;
8958;SDS011;4514;49.476;8.484;2023-02-01T08:28:05;8.37;;;3.13;;
8958;SDS011;4514;49.476;8.484;2023-02-01T08:30:36;5.87;;;2.70;;
8958;SDS011;4514;49.476;8.484;2023-02-01T08:33:02;9.52;;;2.95;;
8958;SDS011;4514;49.476;8.484;2023-02-01T08:35:28;7.03;;;2.60;;
8958;SDS011;4514;49.476;8.484;2023-02-01T08:37:53;8.77;;;3.00;;
8958;SDS011;4514;49.476;8.484;2023-02-01T08:40:18;9.67;;;2.77;;
8958;SDS011;4514;49.476;8.484;2023-02-01T08:42:46;10.70;;;3.10;;
8958;SDS011;4514;49.476;8.484;2023-02-01T08:45:19;7.10;;;2.77;;
8958;SDS011;4514;49.476;8.484;2023-02-01T08:47:46;7.20;;;3.30;;
8958;SDS011;4514;49.476;8.484;2023-02-01T08:50:14;12.50;;;3.50;;
8958;SDS011;4514;49.476;8.484;2023-02-01T08:52:40;8.47;;;3.40;;
8958;SDS011;4514;49.476;8.484;2023-02-01T08:55:06;9.20;;;4.37;;
8958;SDS011;4514;49.476;8.484;2023-02-01T08:57:34;11.32;;;4.07;;
8958;SDS011;4514;49.476;8.484;2023-02-01T08:59:59;8.43;;;3.80;;
8958;SDS011;4514;49.476;8.484;2023-02-01T09:02:27;12.17;;;4.40;;
8958;SDS011;4514;49.476;8.484;2023-02-01T09:04:52;16.40;;;5.10;;
8958;SDS011;4514;49.476;8.484;2023-02-01T09:07:20;15.50;;;5.30;;
8958;SDS011;4514;49.476;8.484;2023-02-01T09:09:46;13.77;;;4.60;;
8958;SDS011;4514;49.476;8.484;2023-02-01T09:12:14;11.70;;;4.10;;
8958;SDS011;4514;49.476;8.484;2023-02-01T09:14:39;10.97;;;4.57;;
8958;SDS011;4514;49.476;8.484;2023-02-01T09:17:04;12.17;;;4.83;;
8958;SDS011;4514;49.476;8.484;2023-02-01T09:19:33;10.27;;;4.70;;
8958;SDS011;4514;49.476;8.484;2023-02-01T09:21:58;11.15;;;4.45;;
8958;SDS011;4514;49.476;8.484;2023-02-01T09:24:26;12.55;;;4.60;;
8958;SDS011;4514;49.476;8.484;2023-02-01T09:26:52;11.83;;;3.77;;
8958;SDS011;4514;49.476;8.484;2023-02-01T09:29:18;11.43;;;4.17;;
8958;SDS011;4514;49.476;8.484;2023-02-01T09:31:43;8.37;;;3.80;;
8958;SDS011;4514;49.476;8.484;2023-02-01T09:34:09;9.87;;;3.83;;
8958;SDS011;4514;49.476;8.484;2023-02-01T09:36:34;11.93;;;3.73;;
8958;SDS011;4514;49.476;8.484;2023-02-01T09:39:05;9.30;;;3.67;;
8958;SDS011;4514;49.476;8.484;2023-02-01T09:46:41;9.27;;;3.63;;
8958;SDS011;4514;49.476;8.484;2023-02-01T09:49:11;14.90;;;4.27;;
8958;SDS011;4514;49.476;8.484;2023-02-01T09:51:44;8.67;;;3.27;;
8958;SDS011;4514;49.476;8.484;2023-02-01T09:54:25;9.30;;;3.67;;
8958;SDS011;4514;49.476;8.484;2023-02-01T09:59:41;11.20;;;3.70;;
8958;SDS011;4514;49.476;8.484;2023-02-01T10:02:13;12.23;;;3.70;;
8958;SDS011;4514;49.476;8.484;2023-02-01T10:04:43;6.30;;;3.23;;
8958;SDS011;4514;49.476;8.484;2023-02-01T10:07:18;10.63;;;3.60;;
8958;SDS011;4514;49.476;8.484;2023-02-01T10:12:35;6.90;;;2.93;;
8958;SDS011;4514;49.476;8.484;2023-02-01T10:28:46;10.63;;;3.00;;
8958;SDS011;4514;49.476;8.484;2023-02-01T10:31:14;8.67;;;2.77;;
8958;SDS011;4514;49.476;8.484;2023-02-01T10:33:44;12.43;;;3.13;;
8958;SDS011;4514;49.476;8.484;2023-02-01T10:38:53;11.60;;;3.20;;
8958;SDS011;4514;49.476;8.484;2023-02-01T10:41:24;9.67;;;3.37;;
8958;SDS011;4514;49.476;8.484;2023-02-01T10:43:57;11.77;;;4.87;;
8958;SDS011;4514;49.476;8.484;2023-02-01T10:46:23;18.10;;;3.83;;
8958;SDS011;4514;49.476;8.484;2023-02-01T10:48:50;8.13;;;3.20;;
8958;SDS011;4514;49.476;8.484;2023-02-01T10:51:22;10.70;;;3.07;;
8958;SDS011;4514;49.476;8.484;2023-02-01T10:53:54;10.55;;;3.33;;
8958;SDS011;4514;49.476;8.484;2023-02-01T10:56:23;13.23;;;2.90;;
8958;SDS011;4514;49.476;8.484;2023-02-01T10:58:52;8.77;;;3.30;;
8958;SDS011;4514;49.476;8.484;2023-02-01T11:04:09;11.70;;;2.87;;
8958;SDS011;4514;49.476;8.484;2023-02-01T11:06:36;9.10;;;3.10;;
8958;SDS011;4514;49.476;8.484;2023-02-01T11:11:31;11.13;;;3.17;;
8958;SDS011;4514;49.476;8.484;2023-02-01T11:14:00;14.03;;;4.40;;
8958;SDS011;4514;49.476;8.484;2023-02-01T11:16:36;13.17;;;4.67;;
8958;SDS011;4514;49.476;8.484;2023-02-01T11:19:02;11.00;;;2.97;;
8958;SDS011;4514;49.476;8.484;2023-02-01T11:21:28;12.43;;;3.77;;
8958;SDS011;4514;49.476;8.484;2023-02-01T11:23:54;12.53;;;3.77;;
8958;SDS011;4514;49.476;8.484;2023-02-01T11:26:21;9.93;;;3.60;;
8958;SDS011;4514;49.476;8.484;2023-02-01T11:31:24;13.37;;;3.47;;
8958;SDS011;4514;49.476;8.484;2023-02-01T11:33:55;9.67;;;2.90;;
8958;SDS011;4514;49.476;8.484;2023-02-01T11:36:30;11.17;;;3.10;;
8958;SDS011;4514;49.476;8.484;2023-02-01T11:44:21;9.93;;;3.03;;
8958;SDS011;4514;49.476;8.484;2023-02-01T11:46:48;11.43;;;3.63;;
8958;SDS011;4514;49.476;8.484;2023-02-01T11:49:25;12.27;;;3.20;;
8958;SDS011;4514;49.476;8.484;2023-02-01T11:54:30;13.37;;;3.63;;
8958;SDS011;4514;49.476;8.484;2023-02-01T12:02:49;9.63;;;3.43;;
8958;SDS011;4514;49.476;8.484;2023-02-01T12:08:10;12.37;;;3.47;;
8958;SDS011;4514;49.476;8.484;2023-02-01T12:18:58;11.20;;;3.40;;
8958;SDS011;4514;49.476;8.484;2023-02-01T12:24:07;11.00;;;3.27;;
8958;SDS011;4514;49.476;8.484;2023-02-01T12:26:44;9.33;;;2.80;;
8958;SDS011;4514;49.476;8.484;2023-02-01T12:37:25;7.53;;;2.77;;
8958;SDS011;4514;49.476;8.484;2023-02-01T12:45:49;11.50;;;2.83;;
8958;SDS011;4514;49.476;8.484;2023-02-01T12:50:54;12.57;;;3.53;;
8958;SDS011;4514;49.476;8.484;2023-02-01T12:55:58;15.00;;;3.60;;
8958;SDS011;4514;49.476;8.484;2023-02-01T12:58:38;12.27;;;3.33;;
8958;SDS011;4514;49.476;8.484;2023-02-01T13:01:16;13.00;;;3.57;;
8958;SDS011;4514;49.476;8.484;2023-02-01T13:04:03;12.93;;;4.13;;
8958;SDS011;4514;49.476;8.484;2023-02-01T13:06:53;10.77;;;3.33;;
8958;SDS011;4514;49.476;8.484;2023-02-01T13:12:12;14.73;;;3.50;;
8958;SDS011;4514;49.476;8.484;2023-02-01T13:17:14;11.40;;;3.43;;
8958;SDS011;4514;49.476;8.484;2023-02-01T13:19:59;11.60;;;3.63;;
8958;SDS011;4514;49.476;8.484;2023-02-01T13:22:39;13.10;;;3.53;;
8958;SDS011;4514;49.476;8.484;2023-02-01T13:27:54;18.17;;;3.50;;
8958;SDS011;4514;49.476;8.484;2023-02-01T13:30:25;11.50;;;3.50;;
8958;SDS011;4514;49.476;8.484;2023-02-01T13:44:10;9.77;;;3.03;;
8958;SDS011;4514;49.476;8.484;2023-02-01T13:46:44;9.07;;;2.90;;
8958;SDS011;4514;49.476;8.484;2023-02-01T13:49:18;10.27;;;3.33;;
8958;SDS011;4514;49.476;8.484;2023-02-01T13:51:46;8.83;;;2.93;;
8958;SDS011;4514;49.476;8.484;2023-02-01T13:56:56;8.87;;;3.00;;
8958;SDS011;4514;49.476;8.484;2023-02-01T14:07:35;10.87;;;2.77;;
8958;SDS011;4514;49.476;8.484;2023-02-01T14:13:05;9.67;;;2.63;;
8958;SDS011;4514;49.476;8.484;2023-02-01T14:15:37;12.05;;;3.40;;
8958;SDS011;4514;49.476;8.484;2023-02-01T14:18:15;8.90;;;2.47;;
8958;SDS011;4514;49.476;8.484;2023-02-01T14:23:42;10.57;;;2.83;;
8958;SDS011;4514;49.476;8.484;2023-02-01T14:26:15;9.77;;;2.40;;
8958;SDS011;4514;49.476;8.484;2023-02-01T14:28:44;13.00;;;2.90;;
8958;SDS011;4514;49.476;8.484;2023-02-01T14:31:15;14.73;;;3.00;;
8958;SDS011;4514;49.476;8.484;2023-02-01T14:33:44;9.93;;;2.57;;
8958;SDS011;4514;49.476;8.484;2023-02-01T14:36:11;8.30;;;2.50;;
8958;SDS011;4514;49.476;8.484;2023-02-01T14:38:38;10.70;;;3.37;;
8958;SDS011;4514;49.476;8.484;2023-02-01T14:49:46;9.63;;;3.27;;
8958;SDS011;4514;49.476;8.484;2023-02-01T14:52:17;8.17;;;2.70;;
8958;SDS011;4514;49.476;8.484;2023-02-01T14:54:46;8.47;;;3.00;;
8958;SDS011;4514;49.476;8.484;2023-02-01T14:57:16;8.60;;;2.63;;
8958;SDS011;4514;49.476;8.484;2023-02-01T14:59:45;5.97;;;2.63;;
8958;SDS011;4514;49.476;8.484;2023-02-01T15:02:17;12.90;;;2.87;;
8958;SDS011;4514;49.476;8.484;2023-02-01T15:04:46;7.40;;;2.40;;
8958;SDS011;4514;49.476;8.484;2023-02-01T15:07:12;6.93;;;2.60;;
8958;SDS011;4514;49.476;8.484;2023-02-01T15:09:44;8.45;;;2.70;;
8958;SDS011;4514;49.476;8.484;2023-02-01T15:12:17;9.05;;;2.80;;
8958;SDS011;4514;49.476;8.484;2023-02-01T15:17:50;9.37;;;2.70;;
8958;SDS011;4514;49.476;8.484;2023-02-01T15:20:28;7.83;;;2.43;;
8958;SDS011;4514;49.476;8.484;2023-02-01T15:22:59;7.90;;;2.60;;
8958;SDS011;4514;49.476;8.484;2023-02-01T15:25:33;9.17;;;2.53;;
8958;SDS011;4514;49.476;8.484;2023-02-01T15:28:03;6.77;;;2.17;;
8958;SDS011;4514;49.476;8.484;2023-02-01T15:30:32;6.03;;;2.17;;
8958;SDS011;4514;49.476;8.484;2023-02-01T15:33:13;9.23;;;2.83;;
8958;SDS011;4514;49.476;8.484;2023-02-01T15:35:44;8.33;;;2.60;;
8958;SDS011;4514;49.476;8.484;2023-02-01T15:40:58;9.03;;;2.77;;
8958;SDS011;4514;49.476;8.484;2023-02-01T15:43:24;8.63;;;2.58;;
8958;SDS011;4514;49.476;8.484;2023-02-01T15:45:51;7.20;;;2.43;;
8958;SDS011;4514;49.476;8.484;2023-02-01T15:48:21;11.30;;;2.70;;
8958;SDS011;4514;49.476;8.484;2023-02-01T15:50:50;9.43;;;4.03;;
8958;SDS011;4514;49.476;8.484;2023-02-01T15:53:18;10.70;;;2.83;;
8958;SDS011;4514;49.476;8.484;2023-02-01T15:55:45;10.45;;;2.95;;
8958;SDS011;4514;49.476;8.484;2023-02-01T15:58:21;10.80;;;3.83;;
8958;SDS011;4514;49.476;8.484;2023-02-01T16:00:52;10.17;;;2.93;;
8958;SDS011;4514;49.476;8.484;2023-02-01T16:06:12;11.23;;;3.03;;
8958;SDS011;4514;49.476;8.484;2023-02-01T16:13:56;10.87;;;3.00;;
8958;SDS011;4514;49.476;8.484;2023-02-01T16:16:25;11.73;;;3.40;;
8958;SDS011;4514;49.476;8.484;2023-02-01T16:18:51;7.67;;;2.83;;
8958;SDS011;4514;49.476;8.484;2023-02-01T16:21:21;10.27;;;2.67;;
8958;SDS011;4514;49.476;8.484;2023-02-01T16:23:50;7.00;;;2.53;;
8958;SDS011;4514;49.476;8.484;2023-02-01T16:26:18;7.30;;;2.90;;
8958;SDS011;4514;49.476;8.484;2023-02-01T16:28:44;11.57;;;3.50;;
8958;SDS011;4514;49.476;8.484;2023-02-01T16:31:13;12.43;;;4.10;;
8958;SDS011;4514;49.476;8.484;2023-02-01T16:33:44;10.60;;;3.40;;
8958;SDS011;4514;49.476;8.484;2023-02-01T16:36:11;14.73;;;3.47;;
8958;SDS011;4514;49.476;8.484;2023-02-01T16:38:38;12.00;;;2.97;;
8958;SDS011;4514;49.476;8.484;2023-02-01T16:41:03;10.97;;;2.80;;
8958;SDS011;4514;49.476;8.484;2023-02-01T16:43:37;10.07;;;3.40;;
8958;SDS011;4514;49.476;8.484;2023-02-01T16:46:03;13.53;;;3.63;;
8958;SDS011;4514;49.476;8.484;2023-02-01T16:48:34;10.73;;;3.50;;
8958;SDS011;4514;49.476;8.484;2023-02-01T16:51:04;10.80;;;3.30;;
8958;SDS011;4514;49.476;8.484;2023-02-01T16:53:34;13.83;;;3.77;;
8958;SDS011;4514;49.476;8.484;2023-02-01T16:56:08;9.93;;;3.70;;
8958;SDS011;4514;49.476;8.484;2023-02-01T16:58:39;10.93;;;3.67;;
8958;SDS011;4514;49.476;8.484;2023-02-01T17:01:06;12.57;;;3.53;;
8958;SDS011;4514;49.476;8.484;2023-02-01T17:03:31;11.00;;;3.23;;
8958;SDS011;4514;49.476;8.484;2023-02-01T17:05:59;12.10;;;3.50;;
8958;SDS011;4514;49.476;8.484;2023-02-01T17:08:32;11.03;;;3.97;;
8958;SDS011;4514;49.476;8.484;2023-02-01T17:10:59;11.07;;;3.50;;
8958;SDS011;4514;49.476;8.484;2023-02-01T17:13:27;13.20;;;3.13;;
8958;SDS011;4514;49.476;8.484;2023-02-01T17:15:59;13.30;;;3.43;;
8958;SDS011;4514;49.476;8.484;2023-02-01T17:18:26;12.10;;;3.30;;
8958;SDS011;4514;49.476;8.484;2023-02-01T17:20:55;9.77;;;2.63;;
8958;SDS011;4514;49.476;8.484;2023-02-01T17:23:22;13.30;;;2.87;;
8958;SDS011;4514;49.476;8.484;2023-02-01T17:25:47;12.57;;;3.07;;
8958;SDS011;4514;49.476;8.484;2023-02-01T17:28:12;12.33;;;5.03;;
8958;SDS011;4514;49.476;8.484;2023-02-01T17:30:40;14.73;;;4.80;;
8958;SDS011;4514;49.476;8.484;2023-02-01T17:33:20;12.40;;;3.60;;
8958;SDS011;4514;49.476;8.484;2023-02-01T17:35:49;9.47;;;3.00;;
8958;SDS011;4514;49.476;8.484;2023-02-01T17:38:16;12.43;;;3.67;;
8958;SDS011;4514;49.476;8.484;2023-02-01T17:40:42;8.53;;;3.37;;
8958;SDS011;4514;49.476;8.484;2023-02-01T17:43:14;11.90;;;3.30;;
8958;SDS011;4514;49.476;8.484;2023-02-01T17:45:45;9.13;;;3.90;;
8958;SDS011;4514;49.476;8.484;2023-02-01T17:48:16;10.53;;;3.30;;
8958;SDS011;4514;49.476;8.484;2023-02-01T17:50:42;12.00;;;3.10;;
8958;SDS011;4514;49.476;8.484;2023-02-01T17:53:11;13.00;;;4.17;;
8958;SDS011;4514;49.476;8.484;2023-02-01T17:55:41;9.90;;;3.47;;
8958;SDS011;4514;49.476;8.484;2023-02-01T17:58:12;11.80;;;3.60;;
8958;SDS011;4514;49.476;8.484;2023-02-01T18:00:39;15.27;;;3.37;;
8958;SDS011;4514;49.476;8.484;2023-02-01T18:03:29;13.17;;;3.10;;
8958;SDS011;4514;49.476;8.484;2023-02-01T18:06:00;11.27;;;3.03;;
8958;SDS011;4514;49.476;8.484;2023-02-01T18:08:29;13.87;;;3.27;;
8958;SDS011;4514;49.476;8.484;2023-02-01T18:10:58;9.30;;;2.93;;
8958;SDS011;4514;49.476;8.484;2023-02-01T18:13:25;6.47;;;2.63;;
8958;SDS011;4514;49.476;8.484;2023-02-01T18:15:51;11.83;;;3.60;;